createdAt,value
2022-09-22T00:00:55.622Z,14.10
2022-09-22T00:03:23.140Z,14.31
2022-09-22T00:05:50.373Z,14.52
2022-09-22T00:08:17.599Z,14.50
2022-09-22T00:10:45.062Z,14.12
2022-09-22T00:13:12.260Z,14.40
2022-09-22T00:15:44.965Z,14.06
2022-09-22T00:18:12.479Z,14.40
2022-09-22T00:20:39.870Z,14.59
2022-09-22T00:23:07.495Z,14.55
2022-09-22T00:25:34.967Z,14.74
2022-09-22T00:28:02.634Z,14.73
2022-09-22T00:30:31.258Z,14.26
2022-09-22T00:32:58.774Z,14.69
2022-09-22T00:35:26.141Z,14.68
2022-09-22T00:37:53.361Z,14.41
2022-09-22T00:40:20.877Z,14.54
2022-09-22T00:42:48.523Z,14.75
2022-09-22T00:45:15.869Z,14.74
2022-09-22T00:47:43.868Z,14.48
2022-09-22T00:50:13.877Z,14.46
2022-09-22T00:52:50.420Z,14.42
2022-09-22T00:55:21.675Z,14.51
2022-09-22T00:57:48.892Z,14.47
2022-09-22T01:00:16.360Z,14.40
2022-09-22T01:02:45.727Z,14.39
2022-09-22T01:05:12.935Z,14.43
2022-09-22T01:07:40.132Z,14.53
2022-09-22T01:10:07.784Z,14.60
2022-09-22T01:12:35.131Z,14.55
2022-09-22T01:15:11.416Z,14.56
2022-09-22T01:17:42.078Z,14.58
2022-09-22T01:20:33.579Z,14.55
2022-09-22T01:23:19.912Z,14.57
2022-09-22T01:25:47.085Z,14.53
2022-09-22T01:28:23.396Z,14.42
2022-09-22T01:30:53.665Z,14.37
2022-09-22T01:33:40.126Z,14.43
2022-09-22T01:36:07.298Z,14.47
2022-09-22T01:38:37.098Z,14.57
2022-09-22T01:41:08.219Z,14.52
2022-09-22T01:43:50.987Z,14.47
2022-09-22T01:46:20.826Z,14.60
2022-09-22T01:48:49.110Z,14.59
2022-09-22T01:51:35.157Z,14.43
2022-09-22T01:54:04.372Z,14.56
2022-09-22T01:56:31.724Z,14.43
2022-09-22T01:59:00.030Z,14.54
2022-09-22T02:01:29.131Z,14.32
2022-09-22T02:04:00.525Z,14.45
2022-09-22T02:06:35.819Z,14.38
2022-09-22T02:09:04.990Z,13.85
2022-09-22T02:11:32.294Z,14.28
2022-09-22T02:13:59.502Z,14.32
2022-09-22T02:16:27.589Z,14.23
2022-09-22T02:19:12.481Z,14.13
2022-09-22T02:21:40.784Z,14.33
2022-09-22T02:24:24.644Z,14.36
2022-09-22T02:26:52.097Z,14.24
2022-09-22T02:29:19.313Z,14.40
2022-09-22T02:31:46.528Z,14.51
2022-09-22T02:34:14.024Z,14.12
2022-09-22T02:36:50.094Z,14.18
2022-09-22T02:39:36.279Z,14.15
2022-09-22T02:42:22.109Z,14.26
2022-09-22T02:44:49.565Z,14.33
2022-09-22T02:47:20.926Z,14.15
2022-09-22T02:49:48.440Z,14.27
2022-09-22T02:52:18.719Z,14.45
2022-09-22T02:54:45.920Z,14.48
2022-09-22T02:57:13.112Z,14.23
2022-09-22T02:59:40.600Z,14.27
2022-09-22T03:02:07.865Z,14.20
2022-09-22T03:04:35.102Z,14.29
2022-09-22T03:07:02.639Z,14.24
2022-09-22T03:09:29.932Z,14.09
2022-09-22T03:11:57.109Z,13.99
2022-09-22T03:14:24.621Z,14.07
2022-09-22T03:16:51.850Z,13.99
2022-09-22T03:19:19.038Z,14.06
2022-09-22T03:21:46.529Z,14.06
2022-09-22T03:24:13.742Z,14.10
2022-09-22T03:26:41.031Z,14.09
2022-09-22T03:29:08.745Z,13.80
2022-09-22T03:31:36.104Z,13.77
2022-09-22T03:34:03.488Z,13.87
2022-09-22T03:36:30.974Z,13.85
2022-09-22T03:38:59.406Z,14.12
2022-09-22T03:41:26.771Z,13.97
2022-09-22T03:43:54.315Z,13.99
2022-09-22T03:46:21.636Z,13.72
2022-09-22T03:48:48.909Z,13.89
2022-09-22T03:51:16.382Z,13.72
2022-09-22T03:53:43.634Z,13.64
2022-09-22T03:56:12.209Z,13.38
2022-09-22T03:58:40.334Z,13.26
2022-09-22T04:01:07.681Z,13.44
2022-09-22T04:03:35.312Z,13.63
2022-09-22T04:06:02.732Z,13.52
2022-09-22T04:08:29.951Z,13.44
2022-09-22T04:11:01.087Z,13.58
2022-09-22T04:13:28.459Z,13.67
2022-09-22T04:15:55.744Z,13.65
2022-09-22T04:18:23.251Z,13.70
2022-09-22T04:20:51.055Z,13.70
2022-09-22T04:23:18.296Z,13.63
2022-09-22T04:25:45.715Z,13.68
2022-09-22T04:28:13.031Z,13.68
2022-09-22T04:30:40.336Z,13.70
2022-09-22T04:33:07.846Z,13.78
2022-09-22T04:35:35.064Z,13.85
2022-09-22T04:38:02.311Z,13.88
2022-09-22T04:40:30.213Z,13.85
2022-09-22T04:42:57.635Z,13.77
2022-09-22T04:45:24.940Z,13.89
2022-09-22T04:47:52.979Z,13.51
2022-09-22T04:50:20.843Z,13.54
2022-09-22T04:52:48.915Z,12.81
2022-09-22T04:55:16.573Z,13.58
2022-09-22T04:57:54.056Z,13.74
2022-09-22T05:00:22.511Z,13.51
2022-09-22T05:02:49.839Z,13.78
2022-09-22T05:05:17.523Z,13.92
2022-09-22T05:07:46.291Z,14.23
2022-09-22T05:10:13.888Z,14.14
2022-09-22T05:12:41.497Z,14.03
2022-09-22T05:15:09.527Z,14.12
2022-09-22T05:17:36.940Z,14.18
2022-09-22T05:20:04.761Z,14.28
2022-09-22T05:22:36.357Z,14.19
2022-09-22T05:25:07.474Z,14.23
2022-09-22T05:27:35.007Z,14.55
2022-09-22T05:30:02.531Z,14.59
2022-09-22T05:32:29.722Z,14.28
2022-09-22T05:34:57.180Z,14.30
2022-09-22T05:37:24.362Z,14.07
2022-09-22T05:39:51.544Z,14.18
2022-09-22T05:42:18.970Z,14.47
2022-09-22T05:44:46.197Z,14.39
2022-09-22T05:47:13.393Z,14.27
2022-09-22T05:49:40.923Z,14.46
2022-09-22T05:52:08.242Z,14.65
2022-09-22T05:54:35.455Z,14.06
2022-09-22T05:57:03.043Z,14.41
2022-09-22T05:59:30.207Z,14.29
2022-09-22T06:01:59.650Z,14.63
2022-09-22T06:04:27.646Z,14.46
2022-09-22T06:06:54.827Z,14.65
2022-09-22T06:09:22.025Z,13.94
2022-09-22T06:11:49.550Z,14.71
2022-09-22T06:14:16.743Z,14.78
2022-09-22T06:16:43.947Z,15.04
2022-09-22T06:19:11.471Z,14.78
2022-09-22T06:21:39.045Z,14.71
2022-09-22T06:24:06.882Z,14.95
2022-09-22T06:26:34.439Z,14.57
2022-09-22T06:29:01.610Z,15.99
2022-09-22T06:31:28.859Z,16.44
2022-09-22T06:33:56.493Z,16.76
2022-09-22T06:36:33.061Z,16.48
2022-09-22T06:39:01.041Z,15.96
2022-09-22T06:41:28.955Z,15.77
2022-09-22T06:43:57.526Z,14.91
2022-09-22T06:46:26.293Z,15.48
2022-09-22T06:48:59.584Z,15.48
2022-09-22T06:51:27.872Z,15.00
2022-09-22T06:53:55.184Z,15.12
2022-09-22T06:56:23.628Z,15.34
2022-09-22T06:59:08.801Z,15.65
2022-09-22T07:01:37.552Z,15.16
2022-09-22T07:04:05.316Z,15.37
2022-09-22T07:06:32.663Z,15.65
2022-09-22T07:09:00.003Z,15.22
2022-09-22T07:11:27.581Z,15.66
2022-09-22T07:13:55.079Z,15.43
2022-09-22T07:16:23.125Z,14.99
2022-09-22T07:18:51.687Z,14.97
2022-09-22T07:21:24.699Z,15.54
2022-09-22T07:23:53.801Z,15.69
2022-09-22T07:26:22.109Z,15.42
2022-09-22T07:28:52.007Z,15.70
2022-09-22T07:31:19.685Z,15.81
2022-09-22T07:33:46.947Z,14.97
2022-09-22T07:36:14.299Z,15.35
2022-09-22T07:38:42.391Z,15.56
2022-09-22T07:41:12.027Z,15.17
2022-09-22T07:43:39.602Z,15.71
2022-09-22T07:46:07.376Z,15.67
2022-09-22T07:48:38.151Z,15.87
2022-09-22T07:51:05.944Z,15.74
2022-09-22T07:53:33.469Z,15.52
2022-09-22T07:56:09.891Z,15.78
2022-09-22T07:58:37.439Z,15.44
2022-09-22T08:01:05.538Z,15.44
2022-09-22T08:03:34.167Z,15.65
2022-09-22T08:06:10.072Z,16.06
2022-09-22T08:08:42.219Z,16.24
2022-09-22T08:11:13.626Z,16.21
2022-09-22T08:13:43.036Z,15.94
2022-09-22T08:16:11.635Z,16.25
2022-09-22T08:18:39.728Z,16.03
2022-09-22T08:21:07.899Z,15.52
2022-09-22T08:23:35.299Z,15.20
2022-09-22T08:26:03.480Z,15.54
2022-09-22T08:28:31.350Z,15.31
2022-09-22T08:30:58.959Z,15.53
2022-09-22T08:33:26.684Z,15.42
2022-09-22T08:35:54.721Z,15.25
2022-09-22T08:38:23.238Z,15.59
2022-09-22T08:40:58.492Z,15.55
2022-09-22T08:43:26.397Z,16.03
2022-09-22T08:45:53.668Z,16.01
2022-09-22T08:48:40.159Z,15.52
2022-09-22T08:51:29.934Z,16.14
2022-09-22T08:54:02.426Z,16.73
2022-09-22T08:56:44.869Z,16.35
2022-09-22T08:59:19.082Z,16.76
2022-09-22T09:02:05.320Z,16.36
2022-09-22T09:04:47.897Z,16.71
2022-09-22T09:07:34.215Z,16.37
2022-09-22T09:10:28.320Z,16.19
2022-09-22T09:13:14.575Z,16.81
2022-09-22T09:15:45.530Z,17.37
2022-09-22T09:18:17.596Z,17.43
2022-09-22T09:20:45.776Z,17.42
2022-09-22T09:23:16.261Z,17.43
2022-09-22T09:25:44.076Z,17.39
2022-09-22T09:28:15.815Z,17.87
2022-09-22T09:30:44.313Z,16.99
2022-09-22T09:33:14.567Z,17.68
2022-09-22T09:35:52.220Z,17.99
2022-09-22T09:38:27.932Z,18.07
2022-09-22T09:41:21.575Z,18.51
2022-09-22T09:43:53.124Z,18.09
2022-09-22T09:46:24.837Z,18.34
2022-09-22T09:49:02.748Z,18.25
2022-09-22T09:51:30.078Z,18.79
2022-09-22T09:53:57.703Z,18.83
2022-09-22T09:56:28.678Z,18.58
2022-09-22T09:59:15.379Z,18.36
2022-09-22T10:01:43.469Z,18.91
2022-09-22T10:04:29.886Z,18.52
2022-09-22T10:07:17.375Z,18.75
2022-09-22T10:09:44.963Z,18.74
2022-09-22T10:12:28.687Z,18.94
2022-09-22T10:14:57.380Z,18.91
2022-09-22T10:17:28.697Z,18.62
2022-09-22T10:20:16.183Z,18.85
2022-09-22T10:22:43.460Z,18.70
2022-09-22T10:25:32.570Z,18.75
2022-09-22T10:28:04.332Z,18.66
2022-09-22T10:30:37.783Z,18.66
2022-09-22T10:33:05.598Z,18.81
2022-09-22T10:35:36.894Z,18.90
2022-09-22T10:38:10.352Z,18.51
2022-09-22T10:40:39.215Z,19.41
2022-09-22T10:43:07.364Z,19.70
2022-09-22T10:45:40.040Z,19.43
2022-09-22T10:48:27.776Z,20.07
2022-09-22T10:50:55.668Z,19.90
2022-09-22T10:53:42.035Z,19.45
2022-09-22T10:56:12.227Z,20.32
2022-09-22T10:58:39.784Z,20.29
2022-09-22T11:01:10.573Z,19.91
2022-09-22T11:03:50.152Z,19.52
2022-09-22T11:07:08.562Z,19.93
2022-09-22T11:10:09.709Z,20.11
2022-09-22T11:12:57.415Z,20.15
2022-09-22T11:15:30.752Z,20.08
2022-09-22T11:18:17.409Z,19.68
2022-09-22T11:20:48.823Z,20.12
2022-09-22T11:23:17.100Z,19.53
2022-09-22T11:25:47.594Z,19.96
2022-09-22T11:28:20.905Z,19.69
2022-09-22T11:30:51.715Z,19.90
2022-09-22T11:33:37.671Z,19.86
2022-09-22T11:36:07.628Z,20.45
2022-09-22T11:38:44.245Z,20.14
2022-09-22T11:41:20.722Z,20.44
2022-09-22T11:43:52.613Z,19.96
2022-09-22T11:46:40.115Z,20.71
2022-09-22T11:49:30.149Z,20.41
2022-09-22T11:51:57.614Z,20.04
2022-09-22T11:54:27.922Z,19.60
2022-09-22T11:56:57.144Z,20.17
2022-09-22T11:59:27.961Z,20.41
2022-09-22T12:01:55.555Z,19.68
2022-09-22T12:04:36.481Z,20.32
2022-09-22T12:07:06.631Z,20.58
2022-09-22T12:09:36.859Z,20.68
2022-09-22T12:12:04.623Z,19.88
2022-09-22T12:14:32.183Z,20.18
2022-09-22T12:17:29.039Z,20.52
2022-09-22T12:20:03.458Z,20.30
2022-09-22T12:22:33.169Z,20.35
2022-09-22T12:25:01.471Z,20.16
2022-09-22T12:27:29.082Z,20.18
2022-09-22T12:29:59.379Z,18.54
2022-09-22T12:32:33.013Z,19.00
2022-09-22T12:35:00.612Z,19.63
2022-09-22T12:38:14.913Z,20.03
2022-09-22T12:40:43.398Z,19.84
2022-09-22T12:43:20.449Z,19.80
2022-09-22T12:45:49.590Z,19.76
2022-09-22T12:48:25.430Z,19.54
2022-09-22T12:50:53.580Z,19.33
2022-09-22T12:53:20.934Z,18.72
2022-09-22T12:55:56.098Z,18.97
2022-09-22T12:58:24.025Z,18.72
2022-09-22T13:00:56.365Z,18.78
2022-09-22T13:03:27.049Z,18.93
2022-09-22T13:06:02.377Z,18.94
2022-09-22T13:08:30.035Z,19.19
2022-09-22T13:11:08.304Z,19.32
2022-09-22T13:13:46.810Z,19.22
2022-09-22T13:16:14.307Z,19.14
2022-09-22T13:18:45.788Z,19.03
2022-09-22T13:21:13.129Z,19.01
2022-09-22T13:23:49.390Z,18.99
2022-09-22T13:26:32.591Z,18.96
2022-09-22T13:29:06.892Z,19.00
2022-09-22T13:31:46.209Z,18.80
2022-09-22T13:34:31.157Z,18.75
2022-09-22T13:37:28.320Z,18.84
2022-09-22T13:39:55.888Z,19.13
2022-09-22T13:42:32.425Z,19.07
2022-09-22T13:45:06.444Z,18.85
2022-09-22T13:47:35.276Z,19.04
2022-09-22T13:50:05.927Z,18.99
2022-09-22T13:52:36.566Z,19.21
2022-09-22T13:55:10.180Z,19.01
2022-09-22T13:57:38.012Z,18.83
2022-09-22T14:00:07.295Z,18.90
2022-09-22T14:02:35.208Z,18.79
2022-09-22T14:05:17.915Z,18.66
2022-09-22T14:08:07.919Z,18.82
2022-09-22T14:10:33.727Z,18.95
2022-09-22T14:13:01.447Z,19.00
2022-09-22T14:15:37.748Z,19.01
2022-09-22T14:18:21.479Z,19.10
2022-09-22T14:20:49.073Z,19.48
2022-09-22T14:23:20.814Z,19.64
2022-09-22T14:25:48.284Z,19.69
2022-09-22T14:28:22.623Z,19.62
2022-09-22T14:30:50.469Z,19.70
2022-09-22T14:33:22.512Z,19.47
2022-09-22T14:35:52.170Z,19.65
2022-09-22T14:38:26.558Z,19.59
2022-09-22T14:40:59.224Z,19.63
2022-09-22T14:43:37.100Z,19.57
2022-09-22T14:46:22.907Z,19.57
2022-09-22T14:48:50.847Z,19.61
2022-09-22T14:51:21.914Z,19.86
2022-09-22T14:54:02.735Z,19.75
2022-09-22T14:56:32.876Z,19.47
2022-09-22T14:59:25.592Z,19.81
2022-09-22T15:02:13.983Z,19.85
2022-09-22T15:04:50.799Z,19.70
2022-09-22T15:07:45.614Z,19.52
2022-09-22T15:10:31.970Z,19.07
2022-09-22T15:13:27.055Z,19.54
2022-09-22T15:15:54.607Z,19.55
2022-09-22T15:18:22.396Z,18.61
2022-09-22T15:20:59.006Z,18.74
2022-09-22T15:23:32.441Z,18.00
2022-09-22T15:26:04.980Z,17.20
2022-09-22T15:28:37.637Z,17.64
2022-09-22T15:31:05.636Z,17.73
2022-09-22T15:33:33.414Z,17.95
2022-09-22T15:36:03.366Z,17.84
2022-09-22T15:38:33.376Z,18.03
2022-09-22T15:41:02.105Z,18.16
2022-09-22T15:43:31.164Z,18.34
2022-09-22T15:46:01.204Z,18.33
2022-09-22T15:48:39.777Z,18.48
2022-09-22T15:51:11.962Z,18.52
2022-09-22T15:53:41.653Z,18.50
2022-09-22T15:56:14.433Z,18.53
2022-09-22T15:58:43.727Z,18.60
2022-09-22T16:01:11.488Z,18.51
2022-09-22T16:03:41.488Z,18.54
2022-09-22T16:06:13.419Z,18.58
2022-09-22T16:08:48.010Z,18.51
2022-09-22T16:11:18.725Z,18.43
2022-09-22T16:13:48.456Z,18.41
2022-09-22T16:16:18.320Z,18.48
2022-09-22T16:18:46.059Z,18.53
2022-09-22T16:21:22.970Z,18.38
2022-09-22T16:23:50.728Z,18.46
2022-09-22T16:26:18.200Z,18.42
2022-09-22T16:28:45.729Z,18.18
2022-09-22T16:31:14.842Z,18.14
2022-09-22T16:33:42.565Z,18.11
2022-09-22T16:36:10.078Z,18.00
2022-09-22T16:38:39.514Z,17.99
2022-09-22T16:41:18.475Z,17.87
2022-09-22T16:43:47.222Z,18.05
2022-09-22T16:46:31.348Z,18.00
2022-09-22T16:49:05.384Z,17.91
2022-09-22T16:51:36.373Z,17.81
2022-09-22T16:54:07.137Z,17.86
2022-09-22T16:56:37.824Z,17.87
2022-09-22T16:59:05.756Z,17.71
2022-09-22T17:01:36.947Z,17.73
2022-09-22T17:04:06.275Z,17.66
2022-09-22T17:06:36.118Z,17.68
2022-09-22T17:09:05.200Z,17.71
2022-09-22T17:11:36.592Z,17.67
2022-09-22T17:14:11.310Z,17.56
2022-09-22T17:16:45.356Z,17.56
2022-09-22T17:19:18.463Z,17.43
2022-09-22T17:21:47.897Z,17.33
2022-09-22T17:24:16.044Z,17.21
2022-09-22T17:26:48.792Z,17.27
2022-09-22T17:29:25.138Z,17.26
2022-09-22T17:31:57.802Z,17.20
2022-09-22T17:34:28.480Z,17.12
2022-09-22T17:36:56.444Z,16.91
2022-09-22T17:39:25.194Z,16.92
2022-09-22T17:41:53.333Z,16.76
2022-09-22T17:44:21.576Z,16.89
2022-09-22T17:47:11.088Z,16.77
2022-09-22T17:49:58.540Z,16.79
2022-09-22T17:52:29.404Z,16.71
2022-09-22T17:55:08.268Z,16.67
2022-09-22T17:57:43.854Z,16.67
2022-09-22T18:00:14.351Z,16.56
2022-09-22T18:02:42.426Z,16.46
2022-09-22T18:05:12.544Z,16.50
2022-09-22T18:07:40.603Z,16.53
2022-09-22T18:10:10.202Z,16.38
2022-09-22T18:12:38.209Z,16.11
2022-09-22T18:15:06.375Z,16.25
2022-09-22T18:17:41.379Z,16.21
2022-09-22T18:20:20.839Z,16.19
2022-09-22T18:22:49.165Z,16.11
2022-09-22T18:25:19.412Z,16.17
2022-09-22T18:27:48.564Z,16.04
2022-09-22T18:30:17.706Z,16.10
2022-09-22T18:32:45.814Z,15.87
2022-09-22T18:35:14.381Z,16.02
2022-09-22T18:37:42.324Z,16.03
2022-09-22T18:40:12.373Z,16.00
2022-09-22T18:42:41.610Z,15.80
2022-09-22T18:45:11.249Z,15.74
2022-09-22T18:47:40.947Z,15.97
2022-09-22T18:50:09.865Z,15.85
2022-09-22T18:52:38.237Z,15.91
2022-09-22T18:55:09.354Z,15.81
2022-09-22T18:57:38.745Z,15.64
2022-09-22T19:00:07.273Z,15.73
2022-09-22T19:02:34.852Z,15.84
2022-09-22T19:05:02.833Z,15.75
2022-09-22T19:07:44.180Z,15.71
2022-09-22T19:10:15.064Z,15.63
2022-09-22T19:12:42.989Z,15.56
2022-09-22T19:15:13.951Z,15.45
2022-09-22T19:17:44.246Z,15.67
2022-09-22T19:20:17.460Z,15.63
2022-09-22T19:22:46.856Z,15.89
2022-09-22T19:25:14.950Z,15.83
2022-09-22T19:27:42.636Z,15.67
2022-09-22T19:30:11.562Z,15.65
2022-09-22T19:32:40.230Z,15.54
2022-09-22T19:35:09.127Z,15.26
2022-09-22T19:37:37.161Z,15.42
2022-09-22T19:40:06.158Z,15.34
2022-09-22T19:42:39.963Z,15.31
2022-09-22T19:45:09.067Z,15.26
2022-09-22T19:47:39.591Z,15.29
2022-09-22T19:50:08.017Z,15.22
2022-09-22T19:52:36.451Z,15.03
2022-09-22T19:55:06.957Z,15.00
2022-09-22T19:57:41.227Z,15.18
2022-09-22T20:00:11.636Z,15.29
2022-09-22T20:02:39.116Z,15.27
2022-09-22T20:05:17.409Z,15.27
2022-09-22T20:07:44.825Z,15.18
2022-09-22T20:10:13.482Z,15.17
2022-09-22T20:12:41.023Z,15.01
2022-09-22T20:15:08.786Z,15.04
2022-09-22T20:17:36.522Z,15.15
2022-09-22T20:20:04.295Z,15.10
2022-09-22T20:22:32.090Z,15.10
2022-09-22T20:25:01.465Z,15.18
2022-09-22T20:27:36.219Z,15.25
2022-09-22T20:30:04.471Z,15.17
2022-09-22T20:32:32.155Z,15.04
2022-09-22T20:34:59.667Z,15.02
2022-09-22T20:37:27.479Z,15.22
2022-09-22T20:39:56.420Z,15.12
2022-09-22T20:42:24.258Z,15.20
2022-09-22T20:44:52.008Z,15.18
2022-09-22T20:47:21.931Z,15.26
2022-09-22T20:49:51.910Z,15.18
2022-09-22T20:52:20.934Z,15.19
2022-09-22T20:54:49.000Z,14.65
2022-09-22T20:57:17.034Z,14.53
2022-09-22T20:59:45.907Z,14.49
2022-09-22T21:02:14.558Z,14.63
2022-09-22T21:04:42.227Z,14.76
2022-09-22T21:07:11.407Z,14.72
2022-09-22T21:09:59.313Z,14.86
2022-09-22T21:12:31.122Z,14.90
2022-09-22T21:14:59.092Z,14.83
2022-09-22T21:17:31.124Z,14.63
2022-09-22T21:19:58.660Z,14.74
2022-09-22T21:22:29.206Z,14.75
2022-09-22T21:24:57.167Z,14.81
2022-09-22T21:27:25.160Z,14.87
2022-09-22T21:29:53.482Z,14.94
2022-09-22T21:32:21.262Z,14.94
2022-09-22T21:34:48.788Z,14.99
2022-09-22T21:37:16.256Z,14.94
2022-09-22T21:39:44.062Z,14.84
2022-09-22T21:42:11.618Z,14.93
2022-09-22T21:44:39.190Z,14.83
2022-09-22T21:47:06.953Z,14.88
2022-09-22T21:49:34.392Z,14.75
2022-09-22T21:52:01.877Z,14.82
2022-09-22T21:54:31.202Z,14.88
2022-09-22T21:56:58.707Z,14.99
2022-09-22T21:59:26.158Z,15.05
2022-09-22T22:01:53.922Z,14.94
2022-09-22T22:04:21.829Z,14.73
2022-09-22T22:06:49.304Z,14.93
2022-09-22T22:09:18.962Z,14.84
2022-09-22T22:11:49.400Z,14.77
2022-09-22T22:14:19.461Z,14.56
2022-09-22T22:16:49.664Z,14.50
2022-09-22T22:19:20.346Z,14.47
2022-09-22T22:21:50.681Z,14.53
2022-09-22T22:24:23.165Z,14.56
2022-09-22T22:26:58.322Z,14.55
2022-09-22T22:29:27.328Z,14.59
2022-09-22T22:31:55.036Z,14.61
2022-09-22T22:34:25.672Z,14.64
2022-09-22T22:36:54.408Z,14.55
2022-09-22T22:39:22.144Z,14.63
2022-09-22T22:41:49.888Z,14.68
2022-09-22T22:44:17.923Z,14.41
2022-09-22T22:46:46.184Z,14.15
2022-09-22T22:49:13.763Z,14.21
2022-09-22T22:51:43.410Z,14.16
2022-09-22T22:54:12.181Z,14.11
2022-09-22T22:56:42.472Z,14.09
2022-09-22T22:59:11.527Z,14.04
2022-09-22T23:01:40.435Z,13.99
2022-09-22T23:04:10.349Z,14.07
2022-09-22T23:06:40.142Z,14.06
2022-09-22T23:09:10.295Z,13.97
2022-09-22T23:11:40.089Z,13.89
2022-09-22T23:14:11.345Z,13.95
2022-09-22T23:16:41.313Z,13.84
2022-09-22T23:19:11.797Z,13.85
2022-09-22T23:21:39.847Z,13.75
2022-09-22T23:24:08.397Z,13.59
2022-09-22T23:26:37.525Z,13.68
2022-09-22T23:29:06.291Z,13.66
2022-09-22T23:31:33.897Z,13.59
2022-09-22T23:34:01.315Z,13.64
2022-09-22T23:36:29.461Z,13.59
2022-09-22T23:39:03.812Z,13.72
2022-09-22T23:41:33.683Z,13.71
2022-09-22T23:44:02.899Z,13.72
2022-09-22T23:46:30.723Z,13.65
2022-09-22T23:49:00.197Z,13.65
2022-09-22T23:51:28.124Z,13.72
2022-09-22T23:53:56.371Z,13.63
2022-09-22T23:56:24.849Z,13.45
2022-09-22T23:58:52.486Z,13.56
